sensor_id;sensor_type;location;lat;lon;timestamp;P1;durP1;ratioP1;P2;durP2;ratioP2
61617;SDS011;47518;51.776;9.370;2022-12-29T00:01:24;3.40;;;3.10;;
61617;SDS011;47518;51.776;9.370;2022-12-29T00:03:50;3.75;;;3.30;;
61617;SDS011;47518;51.776;9.370;2022-12-29T00:06:15;4.35;;;3.30;;
61617;SDS011;47518;51.776;9.370;2022-12-29T00:08:40;3.30;;;3.00;;
61617;SDS011;47518;51.776;9.370;2022-12-29T00:11:07;3.22;;;2.60;;
61617;SDS011;47518;51.776;9.370;2022-12-29T00:13:36;3.80;;;3.22;;
61617;SDS011;47518;51.776;9.370;2022-12-29T00:16:22;5.10;;;3.63;;
61617;SDS011;47518;51.776;9.370;2022-12-29T00:18:47;4.55;;;3.17;;
61617;SDS011;47518;51.776;9.370;2022-12-29T00:21:14;4.95;;;3.28;;
61617;SDS011;47518;51.776;9.370;2022-12-29T00:24:01;3.70;;;3.20;;
61617;SDS011;47518;51.776;9.370;2022-12-29T00:26:47;4.10;;;3.10;;
61617;SDS011;47518;51.776;9.370;2022-12-29T00:29:34;3.40;;;2.95;;
61617;SDS011;47518;51.776;9.370;2022-12-29T00:32:19;3.92;;;3.05;;
61617;SDS011;47518;51.776;9.370;2022-12-29T00:35:06;4.32;;;3.40;;
61617;SDS011;47518;51.776;9.370;2022-12-29T00:37:36;3.28;;;2.97;;
61617;SDS011;47518;51.776;9.370;2022-12-29T00:40:26;5.07;;;3.17;;
61617;SDS011;47518;51.776;9.370;2022-12-29T00:43:11;4.55;;;3.50;;
61617;SDS011;47518;51.776;9.370;2022-12-29T00:45:57;3.80;;;3.40;;
61617;SDS011;47518;51.776;9.370;2022-12-29T00:48:22;4.03;;;3.45;;
61617;SDS011;47518;51.776;9.370;2022-12-29T00:51:07;4.80;;;3.42;;
61617;SDS011;47518;51.776;9.370;2022-12-29T00:53:33;5.88;;;3.40;;
61617;SDS011;47518;51.776;9.370;2022-12-29T00:55:59;3.60;;;3.20;;
61617;SDS011;47518;51.776;9.370;2022-12-29T00:58:27;5.55;;;3.30;;
61617;SDS011;47518;51.776;9.370;2022-12-29T01:01:00;3.33;;;3.03;;
61617;SDS011;47518;51.776;9.370;2022-12-29T01:03:27;3.30;;;3.00;;
61617;SDS011;47518;51.776;9.370;2022-12-29T01:05:52;3.70;;;2.95;;
61617;SDS011;47518;51.776;9.370;2022-12-29T01:08:17;5.15;;;3.08;;
61617;SDS011;47518;51.776;9.370;2022-12-29T01:10:43;4.13;;;2.85;;
61617;SDS011;47518;51.776;9.370;2022-12-29T01:13:08;3.30;;;3.00;;
61617;SDS011;47518;51.776;9.370;2022-12-29T01:15:33;3.30;;;2.80;;
61617;SDS011;47518;51.776;9.370;2022-12-29T01:17:58;4.22;;;3.10;;
61617;SDS011;47518;51.776;9.370;2022-12-29T01:20:24;3.38;;;2.70;;
61617;SDS011;47518;51.776;9.370;2022-12-29T01:22:49;4.10;;;2.70;;
61617;SDS011;47518;51.776;9.370;2022-12-29T01:25:14;2.75;;;2.53;;
61617;SDS011;47518;51.776;9.370;2022-12-29T01:27:40;3.38;;;2.63;;
61617;SDS011;47518;51.776;9.370;2022-12-29T01:30:05;3.35;;;2.80;;
61617;SDS011;47518;51.776;9.370;2022-12-29T01:32:31;3.30;;;2.50;;
61617;SDS011;47518;51.776;9.370;2022-12-29T01:34:56;2.90;;;2.70;;
61617;SDS011;47518;51.776;9.370;2022-12-29T01:37:22;2.90;;;2.63;;
61617;SDS011;47518;51.776;9.370;2022-12-29T01:39:47;3.35;;;2.72;;
61617;SDS011;47518;51.776;9.370;2022-12-29T01:42:16;3.03;;;2.72;;
61617;SDS011;47518;51.776;9.370;2022-12-29T01:44:53;3.17;;;2.67;;
61617;SDS011;47518;51.776;9.370;2022-12-29T01:53:43;2.53;;;2.33;;
61617;SDS011;47518;51.776;9.370;2022-12-29T01:56:10;4.00;;;2.42;;
61617;SDS011;47518;51.776;9.370;2022-12-29T01:58:41;3.50;;;2.47;;
61617;SDS011;47518;51.776;9.370;2022-12-29T02:01:09;3.67;;;2.25;;
61617;SDS011;47518;51.776;9.370;2022-12-29T02:03:35;5.78;;;2.50;;
61617;SDS011;47518;51.776;9.370;2022-12-29T02:06:03;2.47;;;2.28;;
61617;SDS011;47518;51.776;9.370;2022-12-29T02:08:35;2.85;;;2.55;;
61617;SDS011;47518;51.776;9.370;2022-12-29T02:11:02;3.38;;;2.60;;
61617;SDS011;47518;51.776;9.370;2022-12-29T02:13:28;3.22;;;2.10;;
61617;SDS011;47518;51.776;9.370;2022-12-29T02:15:58;2.58;;;2.38;;
61617;SDS011;47518;51.776;9.370;2022-12-29T02:18:42;2.13;;;2.03;;
61617;SDS011;47518;51.776;9.370;2022-12-29T02:37:24;2.50;;;2.08;;
61617;SDS011;47518;51.776;9.370;2022-12-29T02:39:59;2.22;;;2.00;;
61617;SDS011;47518;51.776;9.370;2022-12-29T02:45:32;3.40;;;2.15;;
61617;SDS011;47518;51.776;9.370;2022-12-29T02:48:07;2.30;;;2.10;;
61617;SDS011;47518;51.776;9.370;2022-12-29T03:01:21;3.53;;;2.47;;
61617;SDS011;47518;51.776;9.370;2022-12-29T03:14:30;2.10;;;2.00;;
61617;SDS011;47518;51.776;9.370;2022-12-29T03:17:24;2.40;;;2.10;;
61617;SDS011;47518;51.776;9.370;2022-12-29T03:19:58;2.95;;;2.10;;
61617;SDS011;47518;51.776;9.370;2022-12-29T03:22:29;2.10;;;2.00;;
61617;SDS011;47518;51.776;9.370;2022-12-29T03:25:10;1.92;;;1.80;;
61617;SDS011;47518;51.776;9.370;2022-12-29T03:27:45;2.88;;;2.10;;
61617;SDS011;47518;51.776;9.370;2022-12-29T03:30:15;1.95;;;1.83;;
61617;SDS011;47518;51.776;9.370;2022-12-29T03:32:42;2.00;;;1.90;;
61617;SDS011;47518;51.776;9.370;2022-12-29T03:35:15;1.90;;;1.80;;
61617;SDS011;47518;51.776;9.370;2022-12-29T03:37:45;1.70;;;1.60;;
61617;SDS011;47518;51.776;9.370;2022-12-29T03:40:21;4.15;;;2.00;;
61617;SDS011;47518;51.776;9.370;2022-12-29T03:42:48;1.80;;;1.70;;
61617;SDS011;47518;51.776;9.370;2022-12-29T03:45:14;2.00;;;1.70;;
61617;SDS011;47518;51.776;9.370;2022-12-29T03:47:39;2.40;;;1.80;;
61617;SDS011;47518;51.776;9.370;2022-12-29T03:50:05;1.70;;;1.60;;
61617;SDS011;47518;51.776;9.370;2022-12-29T03:52:31;1.95;;;1.70;;
61617;SDS011;47518;51.776;9.370;2022-12-29T03:54:56;1.67;;;1.58;;
61617;SDS011;47518;51.776;9.370;2022-12-29T03:57:21;1.75;;;1.60;;
61617;SDS011;47518;51.776;9.370;2022-12-29T03:59:47;2.20;;;1.75;;
61617;SDS011;47518;51.776;9.370;2022-12-29T04:02:12;1.55;;;1.50;;
61617;SDS011;47518;51.776;9.370;2022-12-29T04:04:37;1.67;;;1.58;;
61617;SDS011;47518;51.776;9.370;2022-12-29T04:07:03;2.75;;;1.60;;
61617;SDS011;47518;51.776;9.370;2022-12-29T04:09:28;1.70;;;1.60;;
61617;SDS011;47518;51.776;9.370;2022-12-29T04:11:54;1.60;;;1.50;;
61617;SDS011;47518;51.776;9.370;2022-12-29T04:14:20;1.50;;;1.40;;
61617;SDS011;47518;51.776;9.370;2022-12-29T04:16:45;1.50;;;1.40;;
61617;SDS011;47518;51.776;9.370;2022-12-29T04:19:10;1.83;;;1.50;;
61617;SDS011;47518;51.776;9.370;2022-12-29T04:21:36;1.70;;;1.60;;
61617;SDS011;47518;51.776;9.370;2022-12-29T04:24:01;1.60;;;1.50;;
61617;SDS011;47518;51.776;9.370;2022-12-29T04:26:26;1.60;;;1.50;;
61617;SDS011;47518;51.776;9.370;2022-12-29T04:28:52;1.67;;;1.48;;
61617;SDS011;47518;51.776;9.370;2022-12-29T04:31:17;1.42;;;1.40;;
61617;SDS011;47518;51.776;9.370;2022-12-29T04:33:42;1.52;;;1.42;;
61617;SDS011;47518;51.776;9.370;2022-12-29T04:36:08;1.58;;;1.48;;
61617;SDS011;47518;51.776;9.370;2022-12-29T04:38:33;1.45;;;1.35;;
61617;SDS011;47518;51.776;9.370;2022-12-29T04:40:59;1.60;;;1.50;;
61617;SDS011;47518;51.776;9.370;2022-12-29T04:43:26;1.50;;;1.40;;
61617;SDS011;47518;51.776;9.370;2022-12-29T04:45:51;1.55;;;1.45;;
61617;SDS011;47518;51.776;9.370;2022-12-29T04:48:17;1.60;;;1.50;;
61617;SDS011;47518;51.776;9.370;2022-12-29T04:50:42;1.67;;;1.48;;
61617;SDS011;47518;51.776;9.370;2022-12-29T04:53:08;1.48;;;1.45;;
61617;SDS011;47518;51.776;9.370;2022-12-29T04:55:33;1.50;;;1.40;;
61617;SDS011;47518;51.776;9.370;2022-12-29T04:57:59;2.85;;;1.52;;
61617;SDS011;47518;51.776;9.370;2022-12-29T05:00:24;1.52;;;1.42;;
61617;SDS011;47518;51.776;9.370;2022-12-29T05:02:49;1.48;;;1.40;;
61617;SDS011;47518;51.776;9.370;2022-12-29T05:05:15;1.38;;;1.38;;
61617;SDS011;47518;51.776;9.370;2022-12-29T05:07:40;1.58;;;1.48;;
61617;SDS011;47518;51.776;9.370;2022-12-29T05:10:06;2.65;;;1.50;;
61617;SDS011;47518;51.776;9.370;2022-12-29T05:12:32;1.40;;;1.40;;
61617;SDS011;47518;51.776;9.370;2022-12-29T05:39:16;1.15;;;1.15;;
61617;SDS011;47518;51.776;9.370;2022-12-29T05:41:41;1.35;;;1.20;;
61617;SDS011;47518;51.776;9.370;2022-12-29T05:44:07;2.15;;;1.00;;
61617;SDS011;47518;51.776;9.370;2022-12-29T05:46:32;1.20;;;1.20;;
61617;SDS011;47518;51.776;9.370;2022-12-29T05:48:57;1.20;;;1.20;;
61617;SDS011;47518;51.776;9.370;2022-12-29T05:51:23;1.20;;;1.20;;
61617;SDS011;47518;51.776;9.370;2022-12-29T05:53:48;1.40;;;1.10;;
61617;SDS011;47518;51.776;9.370;2022-12-29T05:56:14;2.58;;;1.17;;
61617;SDS011;47518;51.776;9.370;2022-12-29T05:58:39;1.00;;;1.00;;
61617;SDS011;47518;51.776;9.370;2022-12-29T06:01:04;1.10;;;1.10;;
61617;SDS011;47518;51.776;9.370;2022-12-29T06:03:30;1.20;;;1.10;;
61617;SDS011;47518;51.776;9.370;2022-12-29T06:05:55;1.15;;;1.15;;
61617;SDS011;47518;51.776;9.370;2022-12-29T06:08:20;1.20;;;1.20;;
61617;SDS011;47518;51.776;9.370;2022-12-29T06:10:46;1.00;;;1.00;;
61617;SDS011;47518;51.776;9.370;2022-12-29T06:13:11;1.60;;;1.10;;
61617;SDS011;47518;51.776;9.370;2022-12-29T06:15:36;1.00;;;1.00;;
61617;SDS011;47518;51.776;9.370;2022-12-29T06:18:02;1.00;;;1.00;;
61617;SDS011;47518;51.776;9.370;2022-12-29T06:20:28;1.20;;;1.20;;
61617;SDS011;47518;51.776;9.370;2022-12-29T06:22:53;1.10;;;1.10;;
61617;SDS011;47518;51.776;9.370;2022-12-29T06:25:19;1.00;;;1.00;;
61617;SDS011;47518;51.776;9.370;2022-12-29T06:27:44;1.00;;;1.00;;
61617;SDS011;47518;51.776;9.370;2022-12-29T06:30:10;1.00;;;1.00;;
61617;SDS011;47518;51.776;9.370;2022-12-29T06:32:36;1.00;;;1.00;;
61617;SDS011;47518;51.776;9.370;2022-12-29T06:35:02;0.90;;;0.90;;
61617;SDS011;47518;51.776;9.370;2022-12-29T06:37:28;1.00;;;1.00;;
61617;SDS011;47518;51.776;9.370;2022-12-29T06:39:53;1.00;;;1.00;;
61617;SDS011;47518;51.776;9.370;2022-12-29T06:42:19;1.00;;;1.00;;
61617;SDS011;47518;51.776;9.370;2022-12-29T06:44:44;1.13;;;1.02;;
61617;SDS011;47518;51.776;9.370;2022-12-29T06:47:09;1.10;;;1.10;;
61617;SDS011;47518;51.776;9.370;2022-12-29T06:49:35;1.00;;;1.00;;
61617;SDS011;47518;51.776;9.370;2022-12-29T06:52:01;1.05;;;1.00;;
61617;SDS011;47518;51.776;9.370;2022-12-29T06:54:29;0.98;;;0.98;;
61617;SDS011;47518;51.776;9.370;2022-12-29T06:56:54;1.10;;;1.10;;
61617;SDS011;47518;51.776;9.370;2022-12-29T06:59:20;1.20;;;1.10;;
61617;SDS011;47518;51.776;9.370;2022-12-29T07:01:45;1.02;;;1.02;;
61617;SDS011;47518;51.776;9.370;2022-12-29T07:04:10;1.20;;;1.10;;
61617;SDS011;47518;51.776;9.370;2022-12-29T07:06:36;1.10;;;1.10;;
61617;SDS011;47518;51.776;9.370;2022-12-29T07:09:01;1.00;;;1.00;;
61617;SDS011;47518;51.776;9.370;2022-12-29T07:11:27;1.10;;;1.10;;
61617;SDS011;47518;51.776;9.370;2022-12-29T07:13:52;1.17;;;1.17;;
61617;SDS011;47518;51.776;9.370;2022-12-29T07:16:18;1.10;;;1.10;;
61617;SDS011;47518;51.776;9.370;2022-12-29T07:18:43;1.23;;;1.23;;
61617;SDS011;47518;51.776;9.370;2022-12-29T07:21:09;1.10;;;1.10;;
61617;SDS011;47518;51.776;9.370;2022-12-29T07:23:35;1.15;;;1.15;;
61617;SDS011;47518;51.776;9.370;2022-12-29T07:26:04;1.10;;;1.10;;
61617;SDS011;47518;51.776;9.370;2022-12-29T07:28:31;1.20;;;1.20;;
61617;SDS011;47518;51.776;9.370;2022-12-29T07:30:57;1.13;;;1.13;;
61617;SDS011;47518;51.776;9.370;2022-12-29T07:33:23;1.20;;;1.15;;
61617;SDS011;47518;51.776;9.370;2022-12-29T07:35:48;1.15;;;1.15;;
61617;SDS011;47518;51.776;9.370;2022-12-29T07:38:14;1.20;;;1.20;;
61617;SDS011;47518;51.776;9.370;2022-12-29T07:40:40;2.20;;;1.17;;
61617;SDS011;47518;51.776;9.370;2022-12-29T07:43:05;1.30;;;1.20;;
61617;SDS011;47518;51.776;9.370;2022-12-29T07:45:30;1.38;;;1.30;;
61617;SDS011;47518;51.776;9.370;2022-12-29T07:47:56;1.20;;;1.20;;
61617;SDS011;47518;51.776;9.370;2022-12-29T07:50:21;1.30;;;1.20;;
61617;SDS011;47518;51.776;9.370;2022-12-29T07:52:46;2.58;;;1.10;;
61617;SDS011;47518;51.776;9.370;2022-12-29T07:55:12;1.15;;;1.15;;
61617;SDS011;47518;51.776;9.370;2022-12-29T07:57:38;1.10;;;1.10;;
61617;SDS011;47518;51.776;9.370;2022-12-29T08:00:04;1.10;;;1.10;;
61617;SDS011;47518;51.776;9.370;2022-12-29T08:02:29;1.08;;;1.08;;
61617;SDS011;47518;51.776;9.370;2022-12-29T08:04:55;1.17;;;1.13;;
61617;SDS011;47518;51.776;9.370;2022-12-29T08:07:20;1.10;;;1.10;;
61617;SDS011;47518;51.776;9.370;2022-12-29T08:09:46;0.85;;;0.85;;
61617;SDS011;47518;51.776;9.370;2022-12-29T08:12:11;1.00;;;1.00;;
61617;SDS011;47518;51.776;9.370;2022-12-29T08:14:36;1.30;;;1.20;;
61617;SDS011;47518;51.776;9.370;2022-12-29T08:17:02;1.73;;;1.42;;
61617;SDS011;47518;51.776;9.370;2022-12-29T08:19:27;1.15;;;1.15;;
61617;SDS011;47518;51.776;9.370;2022-12-29T08:21:53;3.10;;;1.35;;
61617;SDS011;47518;51.776;9.370;2022-12-29T08:24:18;1.00;;;1.00;;
61617;SDS011;47518;51.776;9.370;2022-12-29T08:26:44;0.90;;;0.90;;
61617;SDS011;47518;51.776;9.370;2022-12-29T08:29:09;1.50;;;1.40;;
61617;SDS011;47518;51.776;9.370;2022-12-29T08:31:35;1.13;;;1.02;;
61617;SDS011;47518;51.776;9.370;2022-12-29T08:34:00;2.22;;;1.42;;
61617;SDS011;47518;51.776;9.370;2022-12-29T08:36:28;1.20;;;1.20;;
61617;SDS011;47518;51.776;9.370;2022-12-29T08:38:53;1.00;;;1.00;;
61617;SDS011;47518;51.776;9.370;2022-12-29T08:41:21;3.22;;;1.10;;
61617;SDS011;47518;51.776;9.370;2022-12-29T08:43:47;1.30;;;1.30;;
61617;SDS011;47518;51.776;9.370;2022-12-29T08:46:13;1.52;;;1.42;;
61617;SDS011;47518;51.776;9.370;2022-12-29T08:48:39;1.23;;;1.23;;
61617;SDS011;47518;51.776;9.370;2022-12-29T08:51:04;1.60;;;1.50;;
61617;SDS011;47518;51.776;9.370;2022-12-29T08:53:30;2.05;;;1.95;;
61617;SDS011;47518;51.776;9.370;2022-12-29T08:55:56;1.95;;;1.50;;
61617;SDS011;47518;51.776;9.370;2022-12-29T08:58:23;2.10;;;2.00;;
61617;SDS011;47518;51.776;9.370;2022-12-29T09:00:51;1.50;;;1.40;;
61617;SDS011;47518;51.776;9.370;2022-12-29T09:03:17;1.65;;;1.55;;
61617;SDS011;47518;51.776;9.370;2022-12-29T09:05:46;2.38;;;1.50;;
61617;SDS011;47518;51.776;9.370;2022-12-29T09:08:14;1.95;;;1.40;;
61617;SDS011;47518;51.776;9.370;2022-12-29T09:10:40;1.50;;;1.40;;
61617;SDS011;47518;51.776;9.370;2022-12-29T09:13:05;1.50;;;1.40;;
61617;SDS011;47518;51.776;9.370;2022-12-29T09:15:30;2.83;;;2.50;;
61617;SDS011;47518;51.776;9.370;2022-12-29T09:17:56;2.05;;;1.85;;
61617;SDS011;47518;51.776;9.370;2022-12-29T09:20:21;1.90;;;1.80;;
61617;SDS011;47518;51.776;9.370;2022-12-29T09:22:47;1.75;;;1.60;;
61617;SDS011;47518;51.776;9.370;2022-12-29T09:25:12;1.10;;;1.10;;
61617;SDS011;47518;51.776;9.370;2022-12-29T09:27:38;1.50;;;1.40;;
61617;SDS011;47518;51.776;9.370;2022-12-29T09:30:04;1.77;;;1.17;;
61617;SDS011;47518;51.776;9.370;2022-12-29T09:32:31;1.45;;;1.35;;
61617;SDS011;47518;51.776;9.370;2022-12-29T09:34:57;4.13;;;1.60;;
61617;SDS011;47518;51.776;9.370;2022-12-29T09:37:22;1.38;;;1.20;;
61617;SDS011;47518;51.776;9.370;2022-12-29T09:39:48;1.35;;;1.10;;
61617;SDS011;47518;51.776;9.370;2022-12-29T09:55:36;1.30;;;1.30;;
61617;SDS011;47518;51.776;9.370;2022-12-29T09:58:10;2.00;;;1.40;;
61617;SDS011;47518;51.776;9.370;2022-12-29T10:00:46;2.35;;;1.50;;
61617;SDS011;47518;51.776;9.370;2022-12-29T10:03:17;1.50;;;1.40;;
61617;SDS011;47518;51.776;9.370;2022-12-29T10:05:48;2.00;;;1.30;;
61617;SDS011;47518;51.776;9.370;2022-12-29T10:08:26;1.50;;;1.50;;
61617;SDS011;47518;51.776;9.370;2022-12-29T10:10:59;2.45;;;1.50;;
61617;SDS011;47518;51.776;9.370;2022-12-29T10:16:38;1.90;;;1.80;;
61617;SDS011;47518;51.776;9.370;2022-12-29T10:32:38;1.83;;;1.73;;
61617;SDS011;47518;51.776;9.370;2022-12-29T10:35:25;2.00;;;1.80;;
61617;SDS011;47518;51.776;9.370;2022-12-29T10:38:01;2.65;;;2.13;;
61617;SDS011;47518;51.776;9.370;2022-12-29T10:59:29;1.65;;;1.52;;
61617;SDS011;47518;51.776;9.370;2022-12-29T11:15:18;3.90;;;1.50;;
61617;SDS011;47518;51.776;9.370;2022-12-29T11:17:46;2.03;;;1.60;;
61617;SDS011;47518;51.776;9.370;2022-12-29T11:23:03;1.80;;;1.60;;
61617;SDS011;47518;51.776;9.370;2022-12-29T11:25:46;2.33;;;1.48;;
61617;SDS011;47518;51.776;9.370;2022-12-29T11:28:30;1.88;;;1.40;;
61617;SDS011;47518;51.776;9.370;2022-12-29T11:31:00;2.17;;;1.50;;
61617;SDS011;47518;51.776;9.370;2022-12-29T11:33:28;2.53;;;1.70;;
61617;SDS011;47518;51.776;9.370;2022-12-29T11:35:57;2.90;;;1.70;;
61617;SDS011;47518;51.776;9.370;2022-12-29T11:38:33;1.90;;;1.77;;
61617;SDS011;47518;51.776;9.370;2022-12-29T11:41:00;4.13;;;1.70;;
61617;SDS011;47518;51.776;9.370;2022-12-29T11:43:30;2.20;;;1.60;;
61617;SDS011;47518;51.776;9.370;2022-12-29T11:45:58;2.97;;;1.77;;
61617;SDS011;47518;51.776;9.370;2022-12-29T11:48:25;2.88;;;2.05;;
61617;SDS011;47518;51.776;9.370;2022-12-29T11:53:28;4.60;;;2.65;;
61617;SDS011;47518;51.776;9.370;2022-12-29T11:56:12;3.63;;;2.42;;
61617;SDS011;47518;51.776;9.370;2022-12-29T11:58:40;2.00;;;1.85;;
61617;SDS011;47518;51.776;9.370;2022-12-29T12:14:34;4.13;;;1.95;;
61617;SDS011;47518;51.776;9.370;2022-12-29T12:17:12;2.33;;;1.73;;
61617;SDS011;47518;51.776;9.370;2022-12-29T12:19:49;2.50;;;1.60;;
61617;SDS011;47518;51.776;9.370;2022-12-29T12:25:23;1.95;;;1.75;;
61617;SDS011;47518;51.776;9.370;2022-12-29T12:28:00;2.95;;;1.60;;
61617;SDS011;47518;51.776;9.370;2022-12-29T12:30:48;2.05;;;1.60;;
61617;SDS011;47518;51.776;9.370;2022-12-29T12:36:16;5.10;;;3.15;;
61617;SDS011;47518;51.776;9.370;2022-12-29T12:44:29;2.17;;;1.70;;
61617;SDS011;47518;51.776;9.370;2022-12-29T13:00:21;1.60;;;1.50;;
61617;SDS011;47518;51.776;9.370;2022-12-29T13:09:05;2.35;;;2.00;;
61617;SDS011;47518;51.776;9.370;2022-12-29T13:11:46;4.68;;;1.85;;
61617;SDS011;47518;51.776;9.370;2022-12-29T13:27:34;4.00;;;1.90;;
61617;SDS011;47518;51.776;9.370;2022-12-29T13:30:09;6.35;;;1.95;;
61617;SDS011;47518;51.776;9.370;2022-12-29T13:32:43;3.08;;;2.00;;
61617;SDS011;47518;51.776;9.370;2022-12-29T13:38:21;3.25;;;2.00;;
61617;SDS011;47518;51.776;9.370;2022-12-29T13:40:55;4.13;;;2.00;;
61617;SDS011;47518;51.776;9.370;2022-12-29T13:45:57;2.22;;;1.88;;
61617;SDS011;47518;51.776;9.370;2022-12-29T13:48:31;5.72;;;1.92;;
61617;SDS011;47518;51.776;9.370;2022-12-29T13:51:02;4.68;;;2.20;;
61617;SDS011;47518;51.776;9.370;2022-12-29T14:06:36;4.20;;;2.30;;
61617;SDS011;47518;51.776;9.370;2022-12-29T14:09:06;4.32;;;2.00;;
61617;SDS011;47518;51.776;9.370;2022-12-29T14:11:57;6.20;;;2.08;;
61617;SDS011;47518;51.776;9.370;2022-12-29T14:14:23;1.88;;;1.77;;
61617;SDS011;47518;51.776;9.370;2022-12-29T14:16:52;4.75;;;2.00;;
61617;SDS011;47518;51.776;9.370;2022-12-29T14:19:19;6.38;;;1.90;;
61617;SDS011;47518;51.776;9.370;2022-12-29T14:21:51;5.45;;;2.20;;
61617;SDS011;47518;51.776;9.370;2022-12-29T14:24:28;6.00;;;3.00;;
61617;SDS011;47518;51.776;9.370;2022-12-29T14:37:41;4.95;;;2.35;;
61617;SDS011;47518;51.776;9.370;2022-12-29T14:42:54;3.47;;;2.20;;
61617;SDS011;47518;51.776;9.370;2022-12-29T14:45:30;3.65;;;2.55;;
61617;SDS011;47518;51.776;9.370;2022-12-29T14:47:58;5.95;;;2.60;;
61617;SDS011;47518;51.776;9.370;2022-12-29T14:50:34;6.40;;;2.53;;
61617;SDS011;47518;51.776;9.370;2022-12-29T14:53:06;6.78;;;3.55;;
61617;SDS011;47518;51.776;9.370;2022-12-29T14:55:55;5.05;;;3.00;;
61617;SDS011;47518;51.776;9.370;2022-12-29T15:01:15;6.28;;;2.70;;
61617;SDS011;47518;51.776;9.370;2022-12-29T15:04:14;5.80;;;2.60;;
61617;SDS011;47518;51.776;9.370;2022-12-29T15:06:43;9.02;;;3.22;;
61617;SDS011;47518;51.776;9.370;2022-12-29T15:12:04;4.93;;;3.00;;
61617;SDS011;47518;51.776;9.370;2022-12-29T15:14:39;7.20;;;3.47;;
61617;SDS011;47518;51.776;9.370;2022-12-29T15:17:30;5.38;;;2.40;;
61617;SDS011;47518;51.776;9.370;2022-12-29T15:19:57;5.82;;;2.60;;
61617;SDS011;47518;51.776;9.370;2022-12-29T15:22:24;4.60;;;2.40;;
61617;SDS011;47518;51.776;9.370;2022-12-29T15:24:51;3.58;;;3.13;;
61617;SDS011;47518;51.776;9.370;2022-12-29T15:27:20;4.05;;;2.75;;
61617;SDS011;47518;51.776;9.370;2022-12-29T15:29:48;4.35;;;2.40;;
61617;SDS011;47518;51.776;9.370;2022-12-29T15:32:22;4.57;;;2.67;;
61617;SDS011;47518;51.776;9.370;2022-12-29T15:34:50;5.38;;;2.97;;
61617;SDS011;47518;51.776;9.370;2022-12-29T15:37:19;9.65;;;3.90;;
61617;SDS011;47518;51.776;9.370;2022-12-29T15:50:27;6.78;;;3.42;;
61617;SDS011;47518;51.776;9.370;2022-12-29T15:52:55;8.95;;;3.50;;
61617;SDS011;47518;51.776;9.370;2022-12-29T15:55:24;4.20;;;2.80;;
61617;SDS011;47518;51.776;9.370;2022-12-29T15:57:55;5.82;;;3.13;;
61617;SDS011;47518;51.776;9.370;2022-12-29T16:00:24;6.10;;;2.85;;
61617;SDS011;47518;51.776;9.370;2022-12-29T16:02:53;5.20;;;2.60;;
61617;SDS011;47518;51.776;9.370;2022-12-29T16:05:20;6.18;;;2.85;;
61617;SDS011;47518;51.776;9.370;2022-12-29T16:07:54;5.07;;;3.30;;
61617;SDS011;47518;51.776;9.370;2022-12-29T16:10:25;2.92;;;2.10;;
61617;SDS011;47518;51.776;9.370;2022-12-29T16:12:55;6.03;;;2.88;;
61617;SDS011;47518;51.776;9.370;2022-12-29T16:15:27;4.93;;;2.45;;
61617;SDS011;47518;51.776;9.370;2022-12-29T16:17:54;7.45;;;2.25;;
61617;SDS011;47518;51.776;9.370;2022-12-29T16:20:23;6.22;;;2.25;;
61617;SDS011;47518;51.776;9.370;2022-12-29T16:22:56;7.05;;;2.53;;
61617;SDS011;47518;51.776;9.370;2022-12-29T16:25:24;2.42;;;2.20;;
61617;SDS011;47518;51.776;9.370;2022-12-29T16:27:54;5.30;;;2.90;;
61617;SDS011;47518;51.776;9.370;2022-12-29T16:30:21;6.68;;;3.45;;
61617;SDS011;47518;51.776;9.370;2022-12-29T16:32:49;5.10;;;2.72;;
61617;SDS011;47518;51.776;9.370;2022-12-29T16:35:19;4.78;;;2.67;;
61617;SDS011;47518;51.776;9.370;2022-12-29T16:37:48;4.97;;;2.72;;
61617;SDS011;47518;51.776;9.370;2022-12-29T16:40:31;5.72;;;2.70;;
61617;SDS011;47518;51.776;9.370;2022-12-29T16:42:58;4.97;;;2.40;;
61617;SDS011;47518;51.776;9.370;2022-12-29T17:01:35;4.03;;;1.85;;
61617;SDS011;47518;51.776;9.370;2022-12-29T17:04:05;3.75;;;2.20;;
61617;SDS011;47518;51.776;9.370;2022-12-29T17:06:32;4.05;;;1.80;;
61617;SDS011;47518;51.776;9.370;2022-12-29T17:08:58;8.05;;;2.20;;
61617;SDS011;47518;51.776;9.370;2022-12-29T17:24:29;2.88;;;2.17;;
61617;SDS011;47518;51.776;9.370;2022-12-29T17:26:55;4.97;;;2.20;;
61617;SDS011;47518;51.776;9.370;2022-12-29T17:29:28;3.15;;;1.90;;
61617;SDS011;47518;51.776;9.370;2022-12-29T17:31:58;3.90;;;1.90;;
61617;SDS011;47518;51.776;9.370;2022-12-29T17:34:24;3.30;;;2.15;;
61617;SDS011;47518;51.776;9.370;2022-12-29T17:36:50;4.30;;;2.15;;
61617;SDS011;47518;51.776;9.370;2022-12-29T17:39:15;2.60;;;1.90;;
61617;SDS011;47518;51.776;9.370;2022-12-29T17:41:40;3.08;;;1.95;;
61617;SDS011;47518;51.776;9.370;2022-12-29T17:44:05;3.05;;;2.00;;
61617;SDS011;47518;51.776;9.370;2022-12-29T17:46:32;4.03;;;2.05;;
61617;SDS011;47518;51.776;9.370;2022-12-29T17:48:58;3.33;;;2.10;;
61617;SDS011;47518;51.776;9.370;2022-12-29T17:51:24;4.47;;;2.70;;
61617;SDS011;47518;51.776;9.370;2022-12-29T17:53:49;2.72;;;2.28;;
61617;SDS011;47518;51.776;9.370;2022-12-29T17:56:16;3.95;;;2.50;;
61617;SDS011;47518;51.776;9.370;2022-12-29T17:58:42;4.93;;;2.92;;
61617;SDS011;47518;51.776;9.370;2022-12-29T18:01:08;2.80;;;2.10;;
61617;SDS011;47518;51.776;9.370;2022-12-29T18:03:36;6.07;;;3.05;;
61617;SDS011;47518;51.776;9.370;2022-12-29T18:06:03;3.00;;;2.10;;
61617;SDS011;47518;51.776;9.370;2022-12-29T18:08:32;3.15;;;2.60;;
61617;SDS011;47518;51.776;9.370;2022-12-29T18:10:59;5.47;;;3.00;;
61617;SDS011;47518;51.776;9.370;2022-12-29T18:13:25;4.78;;;2.13;;
61617;SDS011;47518;51.776;9.370;2022-12-29T18:15:53;3.15;;;2.03;;
61617;SDS011;47518;51.776;9.370;2022-12-29T18:18:20;2.97;;;2.40;;
61617;SDS011;47518;51.776;9.370;2022-12-29T18:20:47;3.53;;;2.05;;
61617;SDS011;47518;51.776;9.370;2022-12-29T18:23:17;6.68;;;2.33;;
61617;SDS011;47518;51.776;9.370;2022-12-29T18:25:53;2.85;;;2.30;;
61617;SDS011;47518;51.776;9.370;2022-12-29T18:28:22;3.67;;;2.00;;
61617;SDS011;47518;51.776;9.370;2022-12-29T18:30:48;4.40;;;1.80;;
61617;SDS011;47518;51.776;9.370;2022-12-29T18:33:15;2.97;;;2.10;;
61617;SDS011;47518;51.776;9.370;2022-12-29T18:35:44;4.38;;;2.40;;
61617;SDS011;47518;51.776;9.370;2022-12-29T18:38:13;4.15;;;2.10;;
61617;SDS011;47518;51.776;9.370;2022-12-29T18:40:38;4.97;;;2.40;;
61617;SDS011;47518;51.776;9.370;2022-12-29T18:43:04;4.05;;;2.83;;
61617;SDS011;47518;51.776;9.370;2022-12-29T18:45:30;2.58;;;2.20;;
61617;SDS011;47518;51.776;9.370;2022-12-29T18:47:58;4.20;;;2.28;;
61617;SDS011;47518;51.776;9.370;2022-12-29T18:50:24;3.28;;;2.40;;
61617;SDS011;47518;51.776;9.370;2022-12-29T18:52:49;4.25;;;2.20;;
61617;SDS011;47518;51.776;9.370;2022-12-29T18:55:16;6.85;;;2.50;;
61617;SDS011;47518;51.776;9.370;2022-12-29T18:57:44;4.28;;;2.22;;
61617;SDS011;47518;51.776;9.370;2022-12-29T19:00:10;5.28;;;2.30;;
61617;SDS011;47518;51.776;9.370;2022-12-29T19:02:37;5.40;;;2.10;;
61617;SDS011;47518;51.776;9.370;2022-12-29T19:05:02;5.82;;;2.60;;
61617;SDS011;47518;51.776;9.370;2022-12-29T19:07:28;7.32;;;2.20;;
61617;SDS011;47518;51.776;9.370;2022-12-29T19:09:54;5.75;;;2.35;;
61617;SDS011;47518;51.776;9.370;2022-12-29T19:12:19;4.25;;;2.13;;
61617;SDS011;47518;51.776;9.370;2022-12-29T19:14:45;7.35;;;2.83;;
61617;SDS011;47518;51.776;9.370;2022-12-29T19:17:11;4.63;;;2.85;;
61617;SDS011;47518;51.776;9.370;2022-12-29T19:19:38;8.27;;;3.20;;
61617;SDS011;47518;51.776;9.370;2022-12-29T19:22:06;7.55;;;3.50;;
61617;SDS011;47518;51.776;9.370;2022-12-29T19:24:32;5.90;;;2.60;;
61617;SDS011;47518;51.776;9.370;2022-12-29T19:26:57;10.43;;;4.25;;
61617;SDS011;47518;51.776;9.370;2022-12-29T19:29:22;5.97;;;2.45;;
61617;SDS011;47518;51.776;9.370;2022-12-29T19:31:48;6.63;;;2.78;;